sensor_id;sensor_type;location;lat;lon;timestamp;temperature;humidity
21551;DHT22;10936;49.836;7.078;2023-01-23T06:02:32;17.70;90.00
21551;DHT22;10936;49.836;7.078;2023-01-23T06:04:58;17.70;90.00
21551;DHT22;10936;49.836;7.078;2023-01-23T06:07:24;17.70;90.00
21551;DHT22;10936;49.836;7.078;2023-01-23T06:09:49;17.70;90.00
21551;DHT22;10936;49.836;7.078;2023-01-23T06:12:15;17.70;90.00
21551;DHT22;10936;49.836;7.078;2023-01-23T06:14:41;17.70;90.00
21551;DHT22;10936;49.836;7.078;2023-01-23T06:17:07;17.70;90.00
21551;DHT22;10936;49.836;7.078;2023-01-23T06:19:33;17.70;90.10
21551;DHT22;10936;49.836;7.078;2023-01-23T06:21:58;17.70;90.10
21551;DHT22;10936;49.836;7.078;2023-01-23T06:24:24;17.70;90.10
21551;DHT22;10936;49.836;7.078;2023-01-23T06:26:49;17.70;90.10
21551;DHT22;10936;49.836;7.078;2023-01-23T06:29:15;17.70;90.20
21551;DHT22;10936;49.836;7.078;2023-01-23T06:31:41;17.70;90.10
21551;DHT22;10936;49.836;7.078;2023-01-23T06:34:07;17.70;90.20
21551;DHT22;10936;49.836;7.078;2023-01-23T06:36:32;17.70;90.10
21551;DHT22;10936;49.836;7.078;2023-01-23T06:38:59;17.70;90.10
21551;DHT22;10936;49.836;7.078;2023-01-23T06:41:24;17.70;90.20
21551;DHT22;10936;49.836;7.078;2023-01-23T06:43:50;17.70;90.10
21551;DHT22;10936;49.836;7.078;2023-01-23T06:46:17;17.70;90.20
21551;DHT22;10936;49.836;7.078;2023-01-23T06:48:43;17.80;90.20
21551;DHT22;10936;49.836;7.078;2023-01-23T06:51:09;17.70;90.20
21551;DHT22;10936;49.836;7.078;2023-01-23T06:53:34;17.80;90.30
21551;DHT22;10936;49.836;7.078;2023-01-23T06:56:01;17.80;90.30
21551;DHT22;10936;49.836;7.078;2023-01-23T06:58:27;17.80;90.40
21551;DHT22;10936;49.836;7.078;2023-01-23T07:00:53;17.80;90.40
21551;DHT22;10936;49.836;7.078;2023-01-23T07:03:19;17.80;90.40
21551;DHT22;10936;49.836;7.078;2023-01-23T07:05:45;17.80;90.40
21551;DHT22;10936;49.836;7.078;2023-01-23T07:08:12;17.80;90.40
21551;DHT22;10936;49.836;7.078;2023-01-23T07:10:38;17.80;90.40
21551;DHT22;10936;49.836;7.078;2023-01-23T07:13:05;17.80;90.40
21551;DHT22;10936;49.836;7.078;2023-01-23T07:15:32;17.80;90.40
21551;DHT22;10936;49.836;7.078;2023-01-23T07:17:58;17.80;90.40
21551;DHT22;10936;49.836;7.078;2023-01-23T07:20:27;17.80;90.40
21551;DHT22;10936;49.836;7.078;2023-01-23T07:22:56;17.80;90.30
21551;DHT22;10936;49.836;7.078;2023-01-23T07:25:23;17.80;90.30
21551;DHT22;10936;49.836;7.078;2023-01-23T07:27:49;17.80;90.30
21551;DHT22;10936;49.836;7.078;2023-01-23T07:30:15;17.80;90.30
21551;DHT22;10936;49.836;7.078;2023-01-23T07:32:41;17.80;90.30
21551;DHT22;10936;49.836;7.078;2023-01-23T07:35:08;17.80;90.30
21551;DHT22;10936;49.836;7.078;2023-01-23T07:37:33;17.80;90.30
21551;DHT22;10936;49.836;7.078;2023-01-23T07:39:59;17.80;90.30
21551;DHT22;10936;49.836;7.078;2023-01-23T07:42:25;17.80;90.30
21551;DHT22;10936;49.836;7.078;2023-01-23T07:44:50;17.80;90.30
21551;DHT22;10936;49.836;7.078;2023-01-23T07:47:16;17.80;90.30
21551;DHT22;10936;49.836;7.078;2023-01-23T07:49:41;17.80;90.20
21551;DHT22;10936;49.836;7.078;2023-01-23T07:52:07;17.80;90.20
21551;DHT22;10936;49.836;7.078;2023-01-23T07:54:32;17.80;90.30
21551;DHT22;10936;49.836;7.078;2023-01-23T07:56:58;17.80;90.20
21551;DHT22;10936;49.836;7.078;2023-01-23T07:59:24;17.80;90.20
21551;DHT22;10936;49.836;7.078;2023-01-23T08:01:49;17.80;90.20
21551;DHT22;10936;49.836;7.078;2023-01-23T08:04:17;17.80;90.20
21551;DHT22;10936;49.836;7.078;2023-01-23T08:06:43;17.80;90.20
21551;DHT22;10936;49.836;7.078;2023-01-23T08:09:09;17.80;90.20
21551;DHT22;10936;49.836;7.078;2023-01-23T08:11:34;17.80;90.20
21551;DHT22;10936;49.836;7.078;2023-01-23T08:14:00;17.80;90.20
21551;DHT22;10936;49.836;7.078;2023-01-23T08:16:25;17.80;90.20
21551;DHT22;10936;49.836;7.078;2023-01-23T08:18:52;17.80;90.10
21551;DHT22;10936;49.836;7.078;2023-01-23T08:21:18;17.80;90.10
21551;DHT22;10936;49.836;7.078;2023-01-23T08:23:43;17.80;90.10
21551;DHT22;10936;49.836;7.078;2023-01-23T08:26:11;17.80;90.10
21551;DHT22;10936;49.836;7.078;2023-01-23T08:28:39;17.80;90.50
21551;DHT22;10936;49.836;7.078;2023-01-23T08:31:06;17.80;90.10
21551;DHT22;10936;49.836;7.078;2023-01-23T08:33:33;17.80;90.10
21551;DHT22;10936;49.836;7.078;2023-01-23T08:36:00;17.80;90.10
21551;DHT22;10936;49.836;7.078;2023-01-23T08:38:26;17.80;90.10
21551;DHT22;10936;49.836;7.078;2023-01-23T08:40:52;17.80;90.10
21551;DHT22;10936;49.836;7.078;2023-01-23T08:43:19;17.80;90.00
21551;DHT22;10936;49.836;7.078;2023-01-23T08:46:03;17.80;90.00
21551;DHT22;10936;49.836;7.078;2023-01-23T08:48:29;17.80;90.00
21551;DHT22;10936;49.836;7.078;2023-01-23T08:51:00;17.80;90.00
21551;DHT22;10936;49.836;7.078;2023-01-23T08:53:26;17.80;90.00
21551;DHT22;10936;49.836;7.078;2023-01-23T08:55:52;17.90;90.00
21551;DHT22;10936;49.836;7.078;2023-01-23T08:58:18;17.90;90.00
21551;DHT22;10936;49.836;7.078;2023-01-23T09:00:44;17.80;90.00
21551;DHT22;10936;49.836;7.078;2023-01-23T09:03:11;17.90;90.00
21551;DHT22;10936;49.836;7.078;2023-01-23T09:05:37;17.90;90.00
21551;DHT22;10936;49.836;7.078;2023-01-23T09:08:03;17.80;90.00
21551;DHT22;10936;49.836;7.078;2023-01-23T09:10:28;17.80;90.00
21551;DHT22;10936;49.836;7.078;2023-01-23T09:12:54;17.90;90.00
21551;DHT22;10936;49.836;7.078;2023-01-23T09:15:20;17.90;90.00
21551;DHT22;10936;49.836;7.078;2023-01-23T09:17:47;17.90;90.00
21551;DHT22;10936;49.836;7.078;2023-01-23T09:20:13;17.90;90.00
21551;DHT22;10936;49.836;7.078;2023-01-23T09:22:39;17.80;89.90
21551;DHT22;10936;49.836;7.078;2023-01-23T09:25:05;17.90;90.00
21551;DHT22;10936;49.836;7.078;2023-01-23T09:27:31;17.90;89.90
21551;DHT22;10936;49.836;7.078;2023-01-23T09:29:56;17.90;89.90
21551;DHT22;10936;49.836;7.078;2023-01-23T09:32:22;17.90;89.90
21551;DHT22;10936;49.836;7.078;2023-01-23T09:34:47;17.90;89.90
21551;DHT22;10936;49.836;7.078;2023-01-23T09:37:14;17.90;89.90
21551;DHT22;10936;49.836;7.078;2023-01-23T09:39:42;17.90;89.90
21551;DHT22;10936;49.836;7.078;2023-01-23T09:42:17;17.90;89.90
21551;DHT22;10936;49.836;7.078;2023-01-23T09:44:46;17.90;89.90
21551;DHT22;10936;49.836;7.078;2023-01-23T09:47:16;17.90;89.90
21551;DHT22;10936;49.836;7.078;2023-01-23T09:52:23;17.90;89.80
21551;DHT22;10936;49.836;7.078;2023-01-23T09:57:52;17.90;89.70
21551;DHT22;10936;49.836;7.078;2023-01-23T10:02:48;17.90;90.20
21551;DHT22;10936;49.836;7.078;2023-01-23T10:05:21;17.90;89.70
21551;DHT22;10936;49.836;7.078;2023-01-23T10:08:17;17.90;89.70
21551;DHT22;10936;49.836;7.078;2023-01-23T10:19:18;17.90;89.60
21551;DHT22;10936;49.836;7.078;2023-01-23T10:22:00;17.90;89.60
21551;DHT22;10936;49.836;7.078;2023-01-23T10:24:46;17.90;89.60
21551;DHT22;10936;49.836;7.078;2023-01-23T10:27:20;17.90;89.60
21551;DHT22;10936;49.836;7.078;2023-01-23T10:29:56;17.90;89.50
21551;DHT22;10936;49.836;7.078;2023-01-23T10:40:20;18.00;89.50
21551;DHT22;10936;49.836;7.078;2023-01-23T10:43:18;17.90;89.40
21551;DHT22;10936;49.836;7.078;2023-01-23T10:45:45;17.90;89.40
21551;DHT22;10936;49.836;7.078;2023-01-23T10:50:56;18.00;89.40
21551;DHT22;10936;49.836;7.078;2023-01-23T10:53:21;18.00;89.40
21551;DHT22;10936;49.836;7.078;2023-01-23T10:55:50;18.00;89.40
21551;DHT22;10936;49.836;7.078;2023-01-23T10:58:54;17.90;89.40
21551;DHT22;10936;49.836;7.078;2023-01-23T11:01:26;17.90;89.30
21551;DHT22;10936;49.836;7.078;2023-01-23T11:03:52;18.00;89.20
21551;DHT22;10936;49.836;7.078;2023-01-23T11:06:20;18.00;89.30
21551;DHT22;10936;49.836;7.078;2023-01-23T11:08:59;18.00;89.30
21551;DHT22;10936;49.836;7.078;2023-01-23T11:11:29;18.00;89.30
21551;DHT22;10936;49.836;7.078;2023-01-23T11:14:13;17.90;89.30
21551;DHT22;10936;49.836;7.078;2023-01-23T11:16:41;18.00;89.30
21551;DHT22;10936;49.836;7.078;2023-01-23T11:21:53;18.00;89.10
21551;DHT22;10936;49.836;7.078;2023-01-23T11:27:03;18.00;89.10
21551;DHT22;10936;49.836;7.078;2023-01-23T11:32:20;18.00;89.10
21551;DHT22;10936;49.836;7.078;2023-01-23T11:34:52;18.00;89.10
21551;DHT22;10936;49.836;7.078;2023-01-23T11:37:25;18.00;89.10
21551;DHT22;10936;49.836;7.078;2023-01-23T11:40:04;18.00;89.10
21551;DHT22;10936;49.836;7.078;2023-01-23T11:42:31;18.00;89.00
21551;DHT22;10936;49.836;7.078;2023-01-23T11:45:00;18.00;89.10
21551;DHT22;10936;49.836;7.078;2023-01-23T11:47:29;18.00;89.00
21551;DHT22;10936;49.836;7.078;2023-01-23T11:58:24;18.00;89.00
21551;DHT22;10936;49.836;7.078;2023-01-23T12:03:42;18.00;89.00
21551;DHT22;10936;49.836;7.078;2023-01-23T12:08:48;18.00;89.00
21551;DHT22;10936;49.836;7.078;2023-01-23T12:11:17;18.00;88.90
21551;DHT22;10936;49.836;7.078;2023-01-23T12:13:48;18.00;88.90
21551;DHT22;10936;49.836;7.078;2023-01-23T12:22:49;18.00;89.10
21551;DHT22;10936;49.836;7.078;2023-01-23T12:28:09;18.00;89.10
21551;DHT22;10936;49.836;7.078;2023-01-23T12:42:09;18.10;89.20
21551;DHT22;10936;49.836;7.078;2023-01-23T12:44:52;18.10;89.30
21551;DHT22;10936;49.836;7.078;2023-01-23T12:47:29;18.10;89.30
21551;DHT22;10936;49.836;7.078;2023-01-23T12:50:07;18.10;89.30
21551;DHT22;10936;49.836;7.078;2023-01-23T12:52:49;18.10;89.30
21551;DHT22;10936;49.836;7.078;2023-01-23T12:55:23;18.10;89.40
21551;DHT22;10936;49.836;7.078;2023-01-23T12:57:55;18.10;89.30
21551;DHT22;10936;49.836;7.078;2023-01-23T13:14:00;18.10;89.10
21551;DHT22;10936;49.836;7.078;2023-01-23T13:16:30;18.10;89.20
21551;DHT22;10936;49.836;7.078;2023-01-23T13:19:00;18.10;89.20
21551;DHT22;10936;49.836;7.078;2023-01-23T13:24:53;18.10;89.50
21551;DHT22;10936;49.836;7.078;2023-01-23T13:27:48;18.20;89.60
21551;DHT22;10936;49.836;7.078;2023-01-23T13:32:48;18.20;89.70
21551;DHT22;10936;49.836;7.078;2023-01-23T13:46:42;18.10;89.90
21551;DHT22;10936;49.836;7.078;2023-01-23T13:49:14;18.10;89.90
21551;DHT22;10936;49.836;7.078;2023-01-23T13:52:00;18.10;89.90
21551;DHT22;10936;49.836;7.078;2023-01-23T13:54:30;18.10;89.90
21551;DHT22;10936;49.836;7.078;2023-01-23T13:57:16;18.10;89.90
21551;DHT22;10936;49.836;7.078;2023-01-23T13:59:45;18.10;89.90
21551;DHT22;10936;49.836;7.078;2023-01-23T14:05:04;18.10;90.00
21551;DHT22;10936;49.836;7.078;2023-01-23T14:07:38;18.10;90.00
21551;DHT22;10936;49.836;7.078;2023-01-23T14:10:31;18.10;90.30
21551;DHT22;10936;49.836;7.078;2023-01-23T14:15:31;18.10;90.00
21551;DHT22;10936;49.836;7.078;2023-01-23T14:18:26;18.10;90.00
21551;DHT22;10936;49.836;7.078;2023-01-23T14:20:58;18.10;90.10
21551;DHT22;10936;49.836;7.078;2023-01-23T14:23:28;18.10;90.00
21551;DHT22;10936;49.836;7.078;2023-01-23T14:25:54;18.20;90.00
21551;DHT22;10936;49.836;7.078;2023-01-23T14:28:20;18.10;90.00
21551;DHT22;10936;49.836;7.078;2023-01-23T14:31:13;18.10;90.00
21551;DHT22;10936;49.836;7.078;2023-01-23T14:33:44;18.10;90.10
21551;DHT22;10936;49.836;7.078;2023-01-23T14:36:17;18.10;90.10
21551;DHT22;10936;49.836;7.078;2023-01-23T14:38:44;18.10;90.10
21551;DHT22;10936;49.836;7.078;2023-01-23T14:41:11;18.10;90.10
21551;DHT22;10936;49.836;7.078;2023-01-23T14:43:37;18.10;90.10
21551;DHT22;10936;49.836;7.078;2023-01-23T14:46:11;18.10;90.10
21551;DHT22;10936;49.836;7.078;2023-01-23T14:48:40;18.10;90.10
21551;DHT22;10936;49.836;7.078;2023-01-23T14:51:17;18.10;90.10
21551;DHT22;10936;49.836;7.078;2023-01-23T14:53:51;18.10;90.20
21551;DHT22;10936;49.836;7.078;2023-01-23T14:56:18;18.10;90.20
21551;DHT22;10936;49.836;7.078;2023-01-23T14:58:45;18.10;90.20
21551;DHT22;10936;49.836;7.078;2023-01-23T15:01:11;18.10;90.10
21551;DHT22;10936;49.836;7.078;2023-01-23T15:03:39;18.10;90.20
21551;DHT22;10936;49.836;7.078;2023-01-23T15:06:08;18.10;90.20
21551;DHT22;10936;49.836;7.078;2023-01-23T15:08:36;18.10;90.20
21551;DHT22;10936;49.836;7.078;2023-01-23T15:11:02;18.10;90.20
21551;DHT22;10936;49.836;7.078;2023-01-23T15:13:46;18.10;90.20
21551;DHT22;10936;49.836;7.078;2023-01-23T15:16:23;18.10;90.20
21551;DHT22;10936;49.836;7.078;2023-01-23T15:19:02;18.10;90.20
21551;DHT22;10936;49.836;7.078;2023-01-23T15:21:31;18.10;90.20
21551;DHT22;10936;49.836;7.078;2023-01-23T15:24:15;18.10;90.20
21551;DHT22;10936;49.836;7.078;2023-01-23T15:26:45;18.00;90.20
21551;DHT22;10936;49.836;7.078;2023-01-23T15:29:20;18.10;90.20
21551;DHT22;10936;49.836;7.078;2023-01-23T15:31:50;18.10;90.20
21551;DHT22;10936;49.836;7.078;2023-01-23T15:39:24;18.10;90.20
21551;DHT22;10936;49.836;7.078;2023-01-23T15:42:03;18.00;90.20
21551;DHT22;10936;49.836;7.078;2023-01-23T15:44:30;18.00;90.20
21551;DHT22;10936;49.836;7.078;2023-01-23T15:46:57;18.00;90.20
21551;DHT22;10936;49.836;7.078;2023-01-23T15:49:28;18.10;90.20
21551;DHT22;10936;49.836;7.078;2023-01-23T15:51:55;18.00;90.20
21551;DHT22;10936;49.836;7.078;2023-01-23T15:54:41;18.00;90.20
21551;DHT22;10936;49.836;7.078;2023-01-23T15:57:12;18.00;90.20
21551;DHT22;10936;49.836;7.078;2023-01-23T15:59:38;18.00;90.20
21551;DHT22;10936;49.836;7.078;2023-01-23T16:02:05;18.00;90.20
21551;DHT22;10936;49.836;7.078;2023-01-23T16:04:32;18.00;90.20
21551;DHT22;10936;49.836;7.078;2023-01-23T16:07:04;18.00;90.20
21551;DHT22;10936;49.836;7.078;2023-01-23T16:09:32;18.00;90.20
21551;DHT22;10936;49.836;7.078;2023-01-23T16:11:59;18.00;90.20
21551;DHT22;10936;49.836;7.078;2023-01-23T16:14:25;18.00;90.20
21551;DHT22;10936;49.836;7.078;2023-01-23T16:16:51;18.00;90.20
21551;DHT22;10936;49.836;7.078;2023-01-23T16:19:17;18.00;90.20
21551;DHT22;10936;49.836;7.078;2023-01-23T16:21:43;18.00;90.20
21551;DHT22;10936;49.836;7.078;2023-01-23T16:24:22;18.00;90.20
21551;DHT22;10936;49.836;7.078;2023-01-23T16:26:49;18.00;90.20
21551;DHT22;10936;49.836;7.078;2023-01-23T16:29:29;18.00;90.20
21551;DHT22;10936;49.836;7.078;2023-01-23T16:31:55;18.00;90.20
21551;DHT22;10936;49.836;7.078;2023-01-23T16:34:22;18.00;90.20
21551;DHT22;10936;49.836;7.078;2023-01-23T16:36:49;18.00;90.30
21551;DHT22;10936;49.836;7.078;2023-01-23T16:39:23;18.00;90.30
21551;DHT22;10936;49.836;7.078;2023-01-23T16:41:49;18.00;90.30
21551;DHT22;10936;49.836;7.078;2023-01-23T16:44:17;18.00;90.30
21551;DHT22;10936;49.836;7.078;2023-01-23T16:46:47;18.00;90.30
21551;DHT22;10936;49.836;7.078;2023-01-23T16:49:13;18.00;90.30
21551;DHT22;10936;49.836;7.078;2023-01-23T16:51:42;18.00;90.30
21551;DHT22;10936;49.836;7.078;2023-01-23T16:54:18;18.00;90.30
21551;DHT22;10936;49.836;7.078;2023-01-23T16:56:45;18.00;90.30
21551;DHT22;10936;49.836;7.078;2023-01-23T16:59:29;18.00;90.30
21551;DHT22;10936;49.836;7.078;2023-01-23T17:01:55;18.00;90.30
21551;DHT22;10936;49.836;7.078;2023-01-23T17:04:21;18.00;90.30
21551;DHT22;10936;49.836;7.078;2023-01-23T17:06:47;18.10;90.30
21551;DHT22;10936;49.836;7.078;2023-01-23T17:09:13;18.10;90.20
21551;DHT22;10936;49.836;7.078;2023-01-23T17:11:43;18.20;90.60
21551;DHT22;10936;49.836;7.078;2023-01-23T17:14:16;18.20;90.20
21551;DHT22;10936;49.836;7.078;2023-01-23T17:16:44;18.30;90.20
21551;DHT22;10936;49.836;7.078;2023-01-23T17:19:26;18.30;90.10
21551;DHT22;10936;49.836;7.078;2023-01-23T17:21:52;18.40;90.00
21551;DHT22;10936;49.836;7.078;2023-01-23T17:24:18;18.50;90.00
21551;DHT22;10936;49.836;7.078;2023-01-23T17:26:44;18.60;90.00
21551;DHT22;10936;49.836;7.078;2023-01-23T17:29:09;18.70;89.90
21551;DHT22;10936;49.836;7.078;2023-01-23T17:31:37;18.80;89.80
21551;DHT22;10936;49.836;7.078;2023-01-23T17:34:03;18.90;89.70
21551;DHT22;10936;49.836;7.078;2023-01-23T17:36:29;18.90;89.50
21551;DHT22;10936;49.836;7.078;2023-01-23T17:38:57;19.00;89.40
21551;DHT22;10936;49.836;7.078;2023-01-23T17:41:23;19.10;89.20
21551;DHT22;10936;49.836;7.078;2023-01-23T17:43:48;19.20;89.10
21551;DHT22;10936;49.836;7.078;2023-01-23T17:46:25;19.30;88.80
21551;DHT22;10936;49.836;7.078;2023-01-23T17:48:51;19.40;88.80
21551;DHT22;10936;49.836;7.078;2023-01-23T17:51:18;19.50;88.30
21551;DHT22;10936;49.836;7.078;2023-01-23T17:53:45;19.60;88.30
21551;DHT22;10936;49.836;7.078;2023-01-23T17:56:10;19.70;88.30
21551;DHT22;10936;49.836;7.078;2023-01-23T17:58:36;19.90;88.20
21551;DHT22;10936;49.836;7.078;2023-01-23T18:01:03;19.90;88.00
21551;DHT22;10936;49.836;7.078;2023-01-23T18:03:30;20.00;87.70
21551;DHT22;10936;49.836;7.078;2023-01-23T18:05:56;20.20;87.90
21551;DHT22;10936;49.836;7.078;2023-01-23T18:08:22;20.30;87.90
21551;DHT22;10936;49.836;7.078;2023-01-23T18:10:51;20.40;87.70
21551;DHT22;10936;49.836;7.078;2023-01-23T18:13:32;20.50;87.50
21551;DHT22;10936;49.836;7.078;2023-01-23T18:16:07;20.60;87.50
21551;DHT22;10936;49.836;7.078;2023-01-23T18:18:36;20.70;87.10
21551;DHT22;10936;49.836;7.078;2023-01-23T18:21:04;20.80;87.20
21551;DHT22;10936;49.836;7.078;2023-01-23T18:23:32;20.90;86.90
21551;DHT22;10936;49.836;7.078;2023-01-23T18:28:53;21.10;86.50
21551;DHT22;10936;49.836;7.078;2023-01-23T18:31:38;21.10;86.40
21551;DHT22;10936;49.836;7.078;2023-01-23T18:34:29;21.20;86.30
21551;DHT22;10936;49.836;7.078;2023-01-23T18:39:37;21.40;86.40
21551;DHT22;10936;49.836;7.078;2023-01-23T18:42:31;21.40;86.20
21551;DHT22;10936;49.836;7.078;2023-01-23T18:45:10;21.50;86.20
21551;DHT22;10936;49.836;7.078;2023-01-23T18:47:37;21.60;86.00
21551;DHT22;10936;49.836;7.078;2023-01-23T18:50:03;21.60;85.90
21551;DHT22;10936;49.836;7.078;2023-01-23T19:03:17;21.90;85.70
21551;DHT22;10936;49.836;7.078;2023-01-23T19:05:44;21.90;85.80
21551;DHT22;10936;49.836;7.078;2023-01-23T19:08:27;22.00;85.80
21551;DHT22;10936;49.836;7.078;2023-01-23T19:10:59;22.00;85.70
21551;DHT22;10936;49.836;7.078;2023-01-23T19:14:23;22.10;85.80
21551;DHT22;10936;49.836;7.078;2023-01-23T19:16:46;22.10;86.40
21551;DHT22;10936;49.836;7.078;2023-01-23T19:19:30;22.20;85.40
21551;DHT22;10936;49.836;7.078;2023-01-23T19:21:59;22.20;85.30
21551;DHT22;10936;49.836;7.078;2023-01-23T19:24:25;22.30;85.40
21551;DHT22;10936;49.836;7.078;2023-01-23T19:26:51;22.30;85.30
21551;DHT22;10936;49.836;7.078;2023-01-23T19:29:18;22.30;85.20
21551;DHT22;10936;49.836;7.078;2023-01-23T19:31:44;22.40;85.40
21551;DHT22;10936;49.836;7.078;2023-01-23T19:34:10;22.40;85.50
21551;DHT22;10936;49.836;7.078;2023-01-23T19:36:36;22.50;85.50
21551;DHT22;10936;49.836;7.078;2023-01-23T19:39:03;22.50;85.30
21551;DHT22;10936;49.836;7.078;2023-01-23T19:41:46;22.50;85.30
21551;DHT22;10936;49.836;7.078;2023-01-23T19:44:16;22.60;85.20
21551;DHT22;10936;49.836;7.078;2023-01-23T19:46:42;22.60;85.30
21551;DHT22;10936;49.836;7.078;2023-01-23T19:49:11;22.70;85.20
21551;DHT22;10936;49.836;7.078;2023-01-23T19:51:37;22.70;85.20
21551;DHT22;10936;49.836;7.078;2023-01-23T19:54:03;22.70;85.00
21551;DHT22;10936;49.836;7.078;2023-01-23T19:56:34;22.80;85.20
21551;DHT22;10936;49.836;7.078;2023-01-23T19:58:59;22.80;85.30
21551;DHT22;10936;49.836;7.078;2023-01-23T20:01:43;22.80;85.20
21551;DHT22;10936;49.836;7.078;2023-01-23T20:04:18;22.90;85.20
21551;DHT22;10936;49.836;7.078;2023-01-23T20:06:45;22.90;85.20
21551;DHT22;10936;49.836;7.078;2023-01-23T20:09:13;23.00;85.20
21551;DHT22;10936;49.836;7.078;2023-01-23T20:11:40;23.00;85.30
21551;DHT22;10936;49.836;7.078;2023-01-23T20:14:05;23.00;85.20
21551;DHT22;10936;49.836;7.078;2023-01-23T20:16:31;23.10;85.00
21551;DHT22;10936;49.836;7.078;2023-01-23T20:18:56;23.10;84.90
21551;DHT22;10936;49.836;7.078;2023-01-23T20:21:23;23.10;85.00
21551;DHT22;10936;49.836;7.078;2023-01-23T20:23:49;23.20;85.00
21551;DHT22;10936;49.836;7.078;2023-01-23T20:26:17;23.20;85.10
21551;DHT22;10936;49.836;7.078;2023-01-23T20:28:46;23.20;85.00
21551;DHT22;10936;49.836;7.078;2023-01-23T20:31:12;23.20;84.80
21551;DHT22;10936;49.836;7.078;2023-01-23T20:33:38;23.30;85.00
21551;DHT22;10936;49.836;7.078;2023-01-23T20:36:05;23.30;85.00
21551;DHT22;10936;49.836;7.078;2023-01-23T20:38:31;23.40;85.00
21551;DHT22;10936;49.836;7.078;2023-01-23T20:43:29;23.50;85.00
21551;DHT22;10936;49.836;7.078;2023-01-23T20:45:54;23.50;85.00
21551;DHT22;10936;49.836;7.078;2023-01-23T20:48:20;23.50;85.00
21551;DHT22;10936;49.836;7.078;2023-01-23T20:50:54;23.50;84.80
21551;DHT22;10936;49.836;7.078;2023-01-23T20:53:20;23.50;84.70
21551;DHT22;10936;49.836;7.078;2023-01-23T20:58:29;23.60;84.80
21551;DHT22;10936;49.836;7.078;2023-01-23T21:01:15;23.60;84.70
21551;DHT22;10936;49.836;7.078;2023-01-23T21:03:41;23.60;84.50
21551;DHT22;10936;49.836;7.078;2023-01-23T21:06:09;23.60;84.70
21551;DHT22;10936;49.836;7.078;2023-01-23T21:08:35;23.70;84.50
21551;DHT22;10936;49.836;7.078;2023-01-23T21:11:09;23.60;84.70
21551;DHT22;10936;49.836;7.078;2023-01-23T21:13:36;23.60;84.60
21551;DHT22;10936;49.836;7.078;2023-01-23T21:16:09;23.60;84.80
21551;DHT22;10936;49.836;7.078;2023-01-23T21:18:39;23.60;84.80
21551;DHT22;10936;49.836;7.078;2023-01-23T21:21:19;23.50;85.00
21551;DHT22;10936;49.836;7.078;2023-01-23T21:23:46;23.50;85.10
21551;DHT22;10936;49.836;7.078;2023-01-23T21:26:14;23.50;85.00
21551;DHT22;10936;49.836;7.078;2023-01-23T21:28:40;23.50;84.90
21551;DHT22;10936;49.836;7.078;2023-01-23T21:31:10;23.40;85.00
21551;DHT22;10936;49.836;7.078;2023-01-23T21:33:36;23.40;85.20
21551;DHT22;10936;49.836;7.078;2023-01-23T21:36:02;23.40;85.30
21551;DHT22;10936;49.836;7.078;2023-01-23T21:38:28;23.30;85.20
21551;DHT22;10936;49.836;7.078;2023-01-23T21:40:53;23.30;85.50
21551;DHT22;10936;49.836;7.078;2023-01-23T21:43:19;23.30;85.70
21551;DHT22;10936;49.836;7.078;2023-01-23T21:45:44;23.30;86.00
21551;DHT22;10936;49.836;7.078;2023-01-23T21:48:10;23.20;85.90
21551;DHT22;10936;49.836;7.078;2023-01-23T21:50:36;23.20;85.80
21551;DHT22;10936;49.836;7.078;2023-01-23T21:53:01;23.10;85.90
21551;DHT22;10936;49.836;7.078;2023-01-23T21:55:27;23.10;85.90
21551;DHT22;10936;49.836;7.078;2023-01-23T21:57:52;23.00;86.10
21551;DHT22;10936;49.836;7.078;2023-01-23T22:00:18;23.00;86.30
21551;DHT22;10936;49.836;7.078;2023-01-23T22:03:02;23.00;86.30
21551;DHT22;10936;49.836;7.078;2023-01-23T22:05:28;22.90;86.40
21551;DHT22;10936;49.836;7.078;2023-01-23T22:07:54;22.90;86.30
21551;DHT22;10936;49.836;7.078;2023-01-23T22:10:19;22.80;85.80
21551;DHT22;10936;49.836;7.078;2023-01-23T22:12:45;22.80;85.90
21551;DHT22;10936;49.836;7.078;2023-01-23T22:15:10;22.80;85.70
21551;DHT22;10936;49.836;7.078;2023-01-23T22:17:36;22.70;85.80
21551;DHT22;10936;49.836;7.078;2023-01-23T22:20:02;22.60;86.10
21551;DHT22;10936;49.836;7.078;2023-01-23T22:22:27;22.60;85.90
21551;DHT22;10936;49.836;7.078;2023-01-23T22:24:53;22.60;85.80
21551;DHT22;10936;49.836;7.078;2023-01-23T22:27:18;22.50;85.70
21551;DHT22;10936;49.836;7.078;2023-01-23T22:29:44;22.50;85.80
